Time;durP1;ratioP1;P1;durP2;ratioP2;P2;SDS_P1;SDS_P2;PMS_P1;PMS_P2;Temp;Humidity;BMP_temperature;BMP_pressure;BME280_temperature;BME280_humidity;BME280_pressure;Samples;Min_cycle;Max_cycle;Signal;HPM_P1;HPM_P2
2022/06/27 00:00:29;;;;;;;0.00;0.00;;;25.20;60.10;;;;;;5034056;28;20539;-73
2022/06/27 00:02:55;;;;;;;0.00;0.00;;;25.30;60.70;;;;;;5035336;28;20099;-73
2022/06/27 00:05:21;;;;;;;1.13;1.05;;;25.40;59.30;;;;;;5040195;28;20057;-73
2022/06/27 00:07:48;;;;;;;0.00;0.00;;;25.50;58.70;;;;;;5034110;28;20056;-73
2022/06/27 00:10:14;;;;;;;0.00;0.00;;;25.60;58.70;;;;;;5034099;28;20035;-73
2022/06/27 00:12:40;;;;;;;0.00;0.00;;;25.90;57.50;;;;;;5035703;28;20056;-74
2022/06/27 00:15:08;;;;;;;0.00;0.00;;;26.00;57.70;;;;;;5034638;28;20034;-73
2022/06/27 00:17:34;;;;;;;0.00;0.00;;;26.20;57.50;;;;;;5036128;28;20035;-73
2022/06/27 00:20:00;;;;;;;0.00;0.00;;;26.70;57.40;;;;;;5034981;28;20071;-73
2022/06/27 00:22:27;;;;;;;0.00;0.00;;;27.30;56.60;;;;;;5035021;28;20088;-74
2022/06/27 00:24:53;;;;;;;0.00;0.00;;;28.00;55.80;;;;;;5034343;28;20162;-73
2022/06/27 00:27:20;;;;;;;0.00;0.00;;;28.70;54.60;;;;;;5034703;28;20437;-73
2022/06/27 00:29:46;;;;;;;0.00;0.00;;;29.30;55.70;;;;;;5033616;28;20032;-73
2022/06/27 00:32:12;;;;;;;0.10;0.10;;;29.70;52.50;;;;;;5032496;28;20026;-74
2022/06/27 00:34:38;;;;;;;0.00;0.00;;;30.20;52.40;;;;;;5035210;28;20025;-73
2022/06/27 00:37:04;;;;;;;0.00;0.00;;;30.70;51.00;;;;;;5035278;28;20032;-73
2022/06/27 00:39:30;;;;;;;0.00;0.00;;;31.20;49.80;;;;;;5034000;28;20116;-73
2022/06/27 00:41:57;;;;;;;0.00;0.00;;;31.30;50.50;;;;;;5033419;28;20018;-73
2022/06/27 00:44:34;;;;;;;0.00;0.00;;;31.60;50.30;;;;;;5033932;28;20022;-74
2022/06/27 00:47:00;;;;;;;0.00;0.00;;;32.50;49.60;;;;;;5034964;28;20021;-73
2022/06/27 00:49:26;;;;;;;0.00;0.00;;;33.10;48.80;;;;;;5033920;28;20515;-74
2022/06/27 00:51:53;;;;;;;0.00;0.00;;;33.80;46.90;;;;;;5034279;28;20036;-73
2022/06/27 00:54:19;;;;;;;0.00;0.00;;;34.10;45.80;;;;;;5034077;28;20843;-73
2022/06/27 00:56:45;;;;;;;0.75;0.75;;;34.40;45.20;;;;;;5034482;28;20025;-73
2022/06/27 00:59:11;;;;;;;0.00;0.00;;;34.20;45.90;;;;;;5034353;28;20022;-72
2022/06/27 01:01:37;;;;;;;0.00;0.00;;;33.80;46.20;;;;;;5034779;28;20036;-74
2022/06/27 01:04:03;;;;;;;0.00;0.00;;;34.20;47.70;;;;;;5033012;28;20032;-71
2022/06/27 01:06:30;;;;;;;0.00;0.00;;;35.00;44.30;;;;;;5034587;28;20092;-72
2022/06/27 01:08:56;;;;;;;0.00;0.00;;;35.70;43.40;;;;;;5034559;28;20048;-73
2022/06/27 01:11:22;;;;;;;0.00;0.00;;;36.20;43.20;;;;;;5033609;28;20033;-73
2022/06/27 01:13:49;;;;;;;0.00;0.00;;;37.10;41.20;;;;;;5033449;28;20112;-73
2022/06/27 01:16:15;;;;;;;0.00;0.00;;;37.90;39.10;;;;;;5032456;28;20053;-73
2022/06/27 01:18:42;;;;;;;0.52;0.52;;;38.60;39.80;;;;;;5033926;28;20068;-74
2022/06/27 01:21:14;;;;;;;0.10;0.10;;;38.70;38.50;;;;;;5032210;28;20032;-73
2022/06/27 01:23:40;;;;;;;0.00;0.00;;;36.90;42.10;;;;;;5031205;28;20024;-73
2022/06/27 01:26:06;;;;;;;0.05;0.05;;;36.80;43.60;;;;;;5032301;28;20072;-73
2022/06/27 01:28:33;;;;;;;0.10;0.10;;;37.50;40.10;;;;;;5033683;28;20029;-73
2022/06/27 01:30:59;;;;;;;0.00;0.00;;;38.30;39.30;;;;;;5032662;28;20056;-74
2022/06/27 01:33:25;;;;;;;0.10;0.10;;;38.40;38.50;;;;;;5033117;28;20025;-72
2022/06/27 01:36:41;;;;;;;0.00;0.00;;;39.00;38.30;;;;;;5030511;28;20484;-73
2022/06/27 01:38:37;;;;;;;0.00;0.00;;;39.10;37.30;;;;;;5027277;28;20033;-74
2022/06/27 01:41:03;;;;;;;0.00;0.00;;;38.70;38.80;;;;;;5037654;28;20416;-74
2022/06/27 01:43:29;;;;;;;0.00;0.00;;;38.80;37.50;;;;;;5026219;28;20029;-74
2022/06/27 01:45:55;;;;;;;0.00;0.00;;;38.90;37.00;;;;;;5012185;28;20022;-74
2022/06/27 01:48:22;;;;;;;0.35;0.35;;;38.50;36.80;;;;;;5032101;28;20451;-74
2022/06/27 01:50:50;;;;;;;0.00;0.00;;;37.70;39.50;;;;;;5032137;28;20048;-74
2022/06/27 01:53:17;;;;;;;0.00;0.00;;;37.30;41.60;;;;;;5030481;28;20025;-74
2022/06/27 01:55:43;;;;;;;5.78;5.50;;;37.60;39.70;;;;;;5011611;28;20025;-73
2022/06/27 01:58:10;;;;;;;0.00;0.00;;;37.80;39.30;;;;;;5030676;28;20056;-73
2022/06/27 02:00:37;;;;;;;0.20;0.20;;;37.70;39.20;;;;;;5035660;28;20108;-73
2022/06/27 02:03:03;;;;;;;0.55;0.55;;;37.20;39.40;;;;;;5032196;28;20383;-73
2022/06/27 02:05:30;;;;;;;0.00;0.00;;;36.30;41.40;;;;;;5033139;28;20033;-73
2022/06/27 02:07:58;;;;;;;0.30;0.30;;;36.80;40.70;;;;;;5039047;28;20025;-73
2022/06/27 02:10:24;;;;;;;0.68;0.65;;;36.60;41.70;;;;;;5028829;28;20104;-73
2022/06/27 02:12:51;;;;;;;1.88;1.77;;;37.30;38.70;;;;;;5028220;28;20380;-73
2022/06/27 02:15:17;;;;;;;0.25;0.25;;;38.30;36.20;;;;;;5024609;28;20079;-73
2022/06/27 02:17:43;;;;;;;1.95;0.68;;;38.50;35.90;;;;;;5030271;28;20037;-73
2022/06/27 02:20:09;;;;;;;0.68;0.68;;;39.10;34.50;;;;;;5029591;28;20025;-72
2022/06/27 02:22:35;;;;;;;0.40;0.40;;;39.60;33.40;;;;;;5029414;28;20025;-73
2022/06/27 02:25:02;;;;;;;2.70;2.60;;;39.40;33.30;;;;;;5025562;28;20052;-73
2022/06/27 02:27:30;;;;;;;0.00;0.00;;;39.70;33.00;;;;;;5034462;28;20029;-73
2022/06/27 02:29:56;;;;;;;0.43;0.43;;;40.20;32.30;;;;;;5032606;28;20025;-73
2022/06/27 02:32:22;;;;;;;0.63;0.63;;;40.20;32.10;;;;;;5027756;28;20438;-73
2022/06/27 02:34:51;;;;;;;0.00;0.00;;;40.00;31.50;;;;;;5037806;28;20013;-73
2022/06/27 02:37:18;;;;;;;0.35;0.28;;;39.70;32.10;;;;;;5027972;28;20033;-74
2022/06/27 02:39:46;;;;;;;0.08;0.08;;;40.00;31.00;;;;;;5025221;28;20384;-73
2022/06/27 02:42:14;;;;;;;1.45;1.40;;;38.70;31.70;;;;;;5027077;28;20056;-75
2022/06/27 02:44:41;;;;;;;0.00;0.00;;;39.10;31.20;;;;;;5031737;28;20032;-73
2022/06/27 02:47:08;;;;;;;0.85;0.85;;;39.10;31.10;;;;;;5032785;28;20384;-74
2022/06/27 02:49:34;;;;;;;0.00;0.00;;;39.00;31.30;;;;;;5032795;28;20037;-74
2022/06/27 02:52:05;;;;;;;0.00;0.00;;;37.80;32.90;;;;;;5030524;28;20048;-74
2022/06/27 02:54:53;;;;;;;0.00;0.00;;;38.80;32.80;;;;;;5024310;28;20293;-73
2022/06/27 02:57:38;;;;;;;0.25;0.25;;;38.30;33.00;;;;;;5025740;28;20399;-74
2022/06/27 03:00:07;;;;;;;0.00;0.00;;;37.60;33.40;;;;;;5023817;28;20025;-74
2022/06/27 03:02:38;;;;;;;0.10;0.10;;;37.30;33.60;;;;;;5020514;28;20112;-75
2022/06/27 03:05:05;;;;;;;0.22;0.22;;;37.80;33.00;;;;;;5028719;28;20060;-75
2022/06/27 03:07:40;;;;;;;0.00;0.00;;;37.80;33.40;;;;;;5011968;28;20051;-74
2022/06/27 03:10:07;;;;;;;0.13;0.13;;;38.40;32.40;;;;;;5023149;28;20355;-75
2022/06/27 03:12:33;;;;;;;0.75;0.75;;;38.50;32.90;;;;;;5022510;28;20141;-75
2022/06/27 03:15:02;;;;;;;0.35;0.28;;;38.50;32.40;;;;;;5022737;28;20033;-74
2022/06/27 03:17:28;;;;;;;0.20;0.20;;;38.90;31.90;;;;;;5025438;28;20028;-74
2022/06/27 03:19:56;;;;;;;0.00;0.00;;;39.30;31.50;;;;;;5028320;28;20021;-74
2022/06/27 03:22:22;;;;;;;0.00;0.00;;;39.30;31.30;;;;;;5028928;28;20029;-74
2022/06/27 03:24:48;;;;;;;0.00;0.00;;;39.70;31.30;;;;;;5026942;28;20033;-75
2022/06/27 03:27:15;;;;;;;0.00;0.00;;;40.20;30.10;;;;;;5043301;28;20034;-76
2022/06/27 03:29:41;;;;;;;1.23;0.57;;;40.40;30.00;;;;;;5024179;28;20364;-73
2022/06/27 03:32:25;;;;;;;1.23;0.70;;;38.50;31.40;;;;;;5025869;28;20451;-73
2022/06/27 03:34:51;;;;;;;0.22;0.22;;;37.90;31.50;;;;;;5027039;28;20084;-73
2022/06/27 03:37:17;;;;;;;0.50;0.50;;;38.80;31.10;;;;;;5028826;28;20025;-74
2022/06/27 03:39:46;;;;;;;0.00;0.00;;;38.30;30.20;;;;;;5026764;28;20155;-74
2022/06/27 03:42:12;;;;;;;0.00;0.00;;;39.10;29.80;;;;;;5021958;28;20021;-74
2022/06/27 03:44:38;;;;;;;0.52;0.52;;;39.30;29.30;;;;;;5026383;28;20655;-75
2022/06/27 03:47:04;;;;;;;0.20;0.20;;;39.40;29.50;;;;;;5030764;28;20089;-74
2022/06/27 03:52:15;;;;;;;0.00;0.00;;;39.40;29.30;;;;;;5037365;28;20139;-74
2022/06/27 03:54:44;;;;;;;0.80;0.80;;;40.00;29.00;;;;;;5041773;28;20493;-76
2022/06/27 03:57:10;;;;;;;32.88;4.50;;;39.50;28.80;;;;;;5023333;28;20506;-75
2022/06/27 03:59:36;;;;;;;0.85;0.85;;;38.90;29.00;;;;;;5022522;28;20032;-74
2022/06/27 04:02:02;;;;;;;0.15;0.10;;;39.00;28.90;;;;;;5018366;28;20030;-74
2022/06/27 04:04:28;;;;;;;0.00;0.00;;;39.10;28.60;;;;;;5022859;28;20067;-75
2022/06/27 04:06:54;;;;;;;0.40;0.40;;;38.90;28.80;;;;;;5028615;28;20119;-74
2022/06/27 04:09:20;;;;;;;0.35;0.20;;;38.50;28.60;;;;;;5027660;28;20029;-72
2022/06/27 04:11:46;;;;;;;0.00;0.00;;;37.70;29.10;;;;;;5024060;28;20487;-73
2022/06/27 04:14:12;;;;;;;0.00;0.00;;;37.30;29.80;;;;;;5027523;28;20030;-75
2022/06/27 04:16:38;;;;;;;0.00;0.00;;;36.40;30.70;;;;;;5021246;28;20449;-73
2022/06/27 04:19:04;;;;;;;0.00;0.00;;;36.50;30.90;;;;;;5027616;28;20033;-74
2022/06/27 04:21:32;;;;;;;0.00;0.00;;;35.80;30.40;;;;;;5025683;28;20112;-73
2022/06/27 04:23:58;;;;;;;0.20;0.20;;;35.50;31.40;;;;;;5026787;28;20025;-74
2022/06/27 04:26:25;;;;;;;2.00;1.90;;;35.10;31.40;;;;;;5026077;28;20034;-74
2022/06/27 04:28:51;;;;;;;0.13;0.10;;;34.70;31.30;;;;;;5028372;28;20404;-74
2022/06/27 04:31:17;;;;;;;0.20;0.20;;;34.70;31.50;;;;;;5022449;28;20044;-74
2022/06/27 04:33:44;;;;;;;0.00;0.00;;;34.90;31.60;;;;;;5010132;28;20044;-74
2022/06/27 04:36:10;;;;;;;0.10;0.10;;;34.90;31.90;;;;;;5023745;28;20068;-73
2022/06/27 04:38:38;;;;;;;0.00;0.00;;;34.80;31.80;;;;;;5025124;28;20029;-74
2022/06/27 04:41:05;;;;;;;0.25;0.25;;;35.00;32.10;;;;;;5026132;28;20033;-74
2022/06/27 04:43:34;;;;;;;0.00;0.00;;;34.90;31.70;;;;;;5023700;28;20056;-74
2022/06/27 04:46:02;;;;;;;0.50;0.50;;;34.70;32.40;;;;;;5027224;28;20464;-75
2022/06/27 04:48:29;;;;;;;0.00;0.00;;;34.90;32.10;;;;;;5032216;28;20124;-74
2022/06/27 04:50:57;;;;;;;0.20;0.20;;;35.00;31.80;;;;;;5027268;28;20022;-73
2022/06/27 04:53:27;;;;;;;0.00;0.00;;;35.00;32.10;;;;;;5028408;28;20055;-74
2022/06/27 04:55:54;;;;;;;0.88;0.43;;;34.80;32.20;;;;;;5031889;28;20034;-74
2022/06/27 04:58:20;;;;;;;0.15;0.08;;;34.50;32.80;;;;;;5027815;28;20044;-74
2022/06/27 05:00:46;;;;;;;0.00;0.00;;;34.80;32.90;;;;;;5032200;28;20096;-73
2022/06/27 05:03:12;;;;;;;0.55;0.55;;;34.40;32.30;;;;;;5033468;28;20025;-74
2022/06/27 05:05:39;;;;;;;0.00;0.00;;;34.40;33.00;;;;;;5031986;28;20029;-73
2022/06/27 05:08:05;;;;;;;0.00;0.00;;;34.30;33.60;;;;;;5032192;28;20038;-74
2022/06/27 05:10:31;;;;;;;0.00;0.00;;;34.40;33.30;;;;;;5030620;28;20096;-76
2022/06/27 05:12:59;;;;;;;0.00;0.00;;;34.50;33.20;;;;;;5010875;28;20037;-75
2022/06/27 05:15:25;;;;;;;0.10;0.10;;;34.70;33.00;;;;;;5029519;28;20041;-73
2022/06/27 05:17:51;;;;;;;0.00;0.00;;;35.00;32.60;;;;;;5026847;28;20025;-75
2022/06/27 05:20:18;;;;;;;0.00;0.00;;;34.80;32.90;;;;;;5027907;28;20040;-76
2022/06/27 05:22:44;;;;;;;0.43;0.10;;;34.60;33.10;;;;;;5023553;28;20070;-74
2022/06/27 05:25:10;;;;;;;0.13;0.13;;;34.70;32.80;;;;;;5031108;28;20494;-73
2022/06/27 05:27:36;;;;;;;1.25;1.23;;;34.70;32.10;;;;;;5037042;28;20355;-75
2022/06/27 05:30:04;;;;;;;0.32;0.32;;;34.80;32.60;;;;;;5032451;28;20025;-74
2022/06/27 05:32:30;;;;;;;0.00;0.00;;;34.80;32.50;;;;;;5026876;28;20033;-73
2022/06/27 05:34:56;;;;;;;6.57;1.38;;;34.70;32.80;;;;;;5024315;28;20032;-74
2022/06/27 05:37:22;;;;;;;0.82;0.82;;;34.80;32.60;;;;;;5027569;28;20029;-73
2022/06/27 05:39:48;;;;;;;7.80;4.68;;;34.70;32.70;;;;;;5025083;28;20051;-73
2022/06/27 05:42:14;;;;;;;0.25;0.25;;;34.90;32.70;;;;;;5021876;28;20728;-73
2022/06/27 05:44:40;;;;;;;0.00;0.00;;;34.70;32.30;;;;;;5025258;28;20024;-75
2022/06/27 05:47:07;;;;;;;0.20;0.10;;;34.50;33.00;;;;;;5027930;28;20029;-73
2022/06/27 05:49:33;;;;;;;0.08;0.08;;;34.50;33.60;;;;;;5028454;28;20049;-73
2022/06/27 05:51:59;;;;;;;0.00;0.00;;;34.60;33.40;;;;;;5027661;28;20075;-74
2022/06/27 05:54:26;;;;;;;0.10;0.10;;;34.50;33.70;;;;;;5026232;28;20037;-74
2022/06/27 05:56:52;;;;;;;0.45;0.45;;;34.50;33.30;;;;;;5021083;28;20033;-74
2022/06/27 05:59:19;;;;;;;0.00;0.00;;;34.60;32.70;;;;;;5023901;28;20887;-76
2022/06/27 06:01:46;;;;;;;0.00;0.00;;;34.90;32.70;;;;;;5027696;28;20055;-74
2022/06/27 06:04:13;;;;;;;5.43;1.45;;;34.70;32.90;;;;;;5025111;28;20022;-76
2022/06/27 06:06:43;;;;;;;0.20;0.17;;;35.00;32.90;;;;;;5038508;28;20051;-73
2022/06/27 06:09:10;;;;;;;0.40;0.38;;;35.00;32.80;;;;;;5010508;28;20060;-73
2022/06/27 06:11:37;;;;;;;0.05;0.00;;;34.50;32.30;;;;;;5029162;28;20033;-73
2022/06/27 06:14:03;;;;;;;0.10;0.10;;;34.50;32.50;;;;;;5026801;28;20043;-74
2022/06/27 06:16:29;;;;;;;0.00;0.00;;;34.50;31.30;;;;;;5025402;28;20025;-74
2022/06/27 06:18:57;;;;;;;0.17;0.17;;;34.60;31.30;;;;;;5026951;28;20026;-73
2022/06/27 06:21:23;;;;;;;0.65;0.38;;;34.70;30.90;;;;;;5026951;28;20040;-73
2022/06/27 06:23:52;;;;;;;0.22;0.15;;;34.50;29.90;;;;;;5028655;28;20064;-74
2022/06/27 06:26:19;;;;;;;0.10;0.10;;;34.50;29.50;;;;;;5028703;28;20140;-73
2022/06/27 06:28:48;;;;;;;0.00;0.00;;;34.50;30.10;;;;;;5023811;28;20106;-75
2022/06/27 06:31:21;;;;;;;0.10;0.10;;;34.50;32.80;;;;;;5011224;28;20037;-73
2022/06/27 06:33:52;;;;;;;0.00;0.00;;;34.60;33.10;;;;;;5026593;28;20052;-75
2022/06/27 06:36:22;;;;;;;1.45;1.00;;;34.60;33.00;;;;;;5009038;28;20037;-74
2022/06/27 06:38:50;;;;;;;0.00;0.00;;;34.50;33.00;;;;;;5025122;28;20049;-74
2022/06/27 06:41:16;;;;;;;0.00;0.00;;;34.50;34.00;;;;;;5005685;28;20033;-75
2022/06/27 06:43:42;;;;;;;0.00;0.00;;;34.70;32.60;;;;;;5029766;28;20025;-74
2022/06/27 06:46:10;;;;;;;0.10;0.10;;;34.50;33.10;;;;;;5021477;28;20033;-74
2022/06/27 06:48:37;;;;;;;0.32;0.25;;;34.40;33.00;;;;;;5026688;28;20053;-75
2022/06/27 06:51:04;;;;;;;0.20;0.20;;;34.40;33.40;;;;;;5007250;28;20381;-73
2022/06/27 06:53:30;;;;;;;0.00;0.00;;;34.50;32.90;;;;;;5027290;28;20115;-73
2022/06/27 06:55:57;;;;;;;0.00;0.00;;;34.60;31.60;;;;;;5031361;28;20108;-74
2022/06/27 06:58:25;;;;;;;0.00;0.00;;;34.70;32.40;;;;;;5026951;28;20549;-73
2022/06/27 07:00:52;;;;;;;0.00;0.00;;;34.70;30.90;;;;;;5031372;28;20026;-74
2022/06/27 07:03:20;;;;;;;0.20;0.20;;;35.20;31.00;;;;;;5021564;28;20116;-73
2022/06/27 07:05:49;;;;;;;0.00;0.00;;;35.50;32.20;;;;;;5025115;28;20096;-74
2022/06/27 07:08:15;;;;;;;0.00;0.00;;;35.50;32.10;;;;;;5025906;28;20018;-73
2022/06/27 07:10:44;;;;;;;0.08;0.08;;;35.50;32.20;;;;;;5030485;28;20734;-76
2022/06/27 07:13:10;;;;;;;0.10;0.10;;;35.60;31.30;;;;;;5024196;28;20127;-72
2022/06/27 07:15:37;;;;;;;0.63;0.10;;;35.50;29.60;;;;;;5025739;28;20075;-74
2022/06/27 07:18:04;;;;;;;0.25;0.25;;;35.00;30.20;;;;;;5022015;28;20034;-74
2022/06/27 07:20:32;;;;;;;0.00;0.00;;;35.10;30.40;;;;;;5005168;28;20521;-74
2022/06/27 07:22:58;;;;;;;0.22;0.22;;;35.00;31.60;;;;;;5022079;28;20032;-76
2022/06/27 07:25:25;;;;;;;0.00;0.00;;;35.20;31.60;;;;;;5024331;28;20108;-75
2022/06/27 07:27:52;;;;;;;1.55;1.15;;;35.00;32.20;;;;;;5024684;28;20037;-75
2022/06/27 07:30:19;;;;;;;0.00;0.00;;;34.90;32.90;;;;;;5025710;28;20026;-74
2022/06/27 07:32:46;;;;;;;0.00;0.00;;;34.80;33.10;;;;;;5025274;28;20041;-75
2022/06/27 07:35:13;;;;;;;0.10;0.10;;;35.10;33.00;;;;;;5018041;28;20384;-75
2022/06/27 07:37:45;;;;;;;0.77;0.77;;;34.80;32.70;;;;;;5021053;28;20117;-74
2022/06/27 07:40:12;;;;;;;0.20;0.10;;;35.10;32.40;;;;;;5019738;28;20411;-75
2022/06/27 07:42:39;;;;;;;0.13;0.13;;;35.30;31.40;;;;;;5019362;28;20085;-74
2022/06/27 07:45:07;;;;;;;0.00;0.00;;;35.20;32.00;;;;;;5019367;28;20101;-73
2022/06/27 07:47:34;;;;;;;0.10;0.10;;;35.00;31.10;;;;;;5019045;28;20468;-74
2022/06/27 07:50:00;;;;;;;0.00;0.00;;;35.10;30.80;;;;;;5023272;28;20025;-74
2022/06/27 07:52:26;;;;;;;0.00;0.00;;;35.10;31.20;;;;;;5021425;28;20514;-75
2022/06/27 07:54:52;;;;;;;0.00;0.00;;;35.30;31.30;;;;;;5019070;28;20032;-73
2022/06/27 07:57:19;;;;;;;0.00;0.00;;;35.70;30.00;;;;;;5020553;28;20116;-73
2022/06/27 07:59:45;;;;;;;0.00;0.00;;;36.10;30.30;;;;;;5021002;28;20108;-73
2022/06/27 08:02:11;;;;;;;4.47;0.52;;;36.10;31.00;;;;;;5020344;28;20033;-74
2022/06/27 08:04:37;;;;;;;0.10;0.10;;;36.40;29.90;;;;;;5019895;28;20028;-75
2022/06/27 08:07:04;;;;;;;0.00;0.00;;;36.10;29.70;;;;;;5021484;28;20022;-75
2022/06/27 08:09:31;;;;;;;0.00;0.00;;;36.30;29.60;;;;;;5022850;28;20597;-74
2022/06/27 08:11:58;;;;;;;0.00;0.00;;;36.50;29.50;;;;;;5019644;28;20159;-73
2022/06/27 08:14:25;;;;;;;0.00;0.00;;;36.50;29.40;;;;;;5018663;28;20053;-73
2022/06/27 08:16:52;;;;;;;0.00;0.00;;;35.70;29.70;;;;;;5026405;28;20041;-73
2022/06/27 08:19:19;;;;;;;0.00;0.00;;;35.70;31.30;;;;;;5022187;28;20064;-75
2022/06/27 08:21:47;;;;;;;0.00;0.00;;;36.20;30.00;;;;;;5023088;28;20025;-72
2022/06/27 08:24:18;;;;;;;0.00;0.00;;;36.30;30.60;;;;;;5028049;28;20026;-73
2022/06/27 08:26:46;;;;;;;0.55;0.20;;;36.60;29.70;;;;;;5026581;28;20845;-74
2022/06/27 08:29:12;;;;;;;0.68;0.68;;;36.30;29.90;;;;;;5026045;28;20518;-74
2022/06/27 08:31:45;;;;;;;0.00;0.00;;;36.10;30.00;;;;;;5022606;28;20080;-74
2022/06/27 08:34:13;;;;;;;0.00;0.00;;;35.90;30.50;;;;;;5026024;28;20033;-74
2022/06/27 08:36:40;;;;;;;0.00;0.00;;;36.00;29.50;;;;;;5027219;28;20372;-74
2022/06/27 08:39:15;;;;;;;0.13;0.13;;;35.70;29.70;;;;;;5023209;28;20434;-75
2022/06/27 08:41:45;;;;;;;4.43;2.42;;;35.90;29.40;;;;;;5025236;28;20030;-74
2022/06/27 08:44:11;;;;;;;0.30;0.30;;;35.90;29.10;;;;;;5021222;28;20072;-74
2022/06/27 08:46:37;;;;;;;0.80;0.60;;;35.80;29.60;;;;;;5023985;28;20033;-74
2022/06/27 08:49:05;;;;;;;0.00;0.00;;;36.20;29.70;;;;;;5026035;28;20385;-75
2022/06/27 08:51:32;;;;;;;0.00;0.00;;;36.20;29.60;;;;;;5028916;28;20030;-75
2022/06/27 08:53:59;;;;;;;0.00;0.00;;;36.60;29.30;;;;;;5040945;28;20309;-73
2022/06/27 09:08:10;;;;;;;0.03;0.03;;;37.00;28.80;;;;;;5041537;27;1868687;-75
2022/06/27 09:10:42;;;;;;;0.00;0.00;;;37.30;28.00;;;;;;5098287;28;20280;-75
2022/06/27 09:13:13;;;;;;;0.00;0.00;;;37.00;29.10;;;;;;5092513;28;20154;-74
2022/06/27 09:15:48;;;;;;;2.00;0.60;;;37.20;29.40;;;;;;5095421;28;20020;-75
2022/06/27 09:18:21;;;;;;;0.60;0.13;;;37.00;29.10;;;;;;5098653;28;20065;-74
2022/06/27 09:21:09;;;;;;;0.00;0.00;;;36.80;29.50;;;;;;5100229;28;20534;-75
2022/06/27 09:23:41;;;;;;;0.00;0.00;;;36.50;29.10;;;;;;5096078;28;20142;-74
2022/06/27 09:26:15;;;;;;;0.00;0.00;;;36.50;29.80;;;;;;5094438;28;20074;-75
2022/06/27 09:28:47;;;;;;;2.28;2.05;;;36.90;29.30;;;;;;5100141;28;20043;-74
2022/06/27 09:31:28;;;;;;;0.00;0.00;;;37.00;28.60;;;;;;5098003;28;20024;-75
2022/06/27 09:34:14;;;;;;;2.95;2.10;;;36.80;28.70;;;;;;5100131;28;20219;-74
2022/06/27 09:36:59;;;;;;;0.00;0.00;;;37.10;29.20;;;;;;5093309;28;20044;-74
2022/06/27 09:39:39;;;;;;;0.30;0.30;;;36.60;29.30;;;;;;5098714;28;20312;-74
2022/06/27 09:42:09;;;;;;;5.30;5.00;;;36.40;29.00;;;;;;5097872;28;20036;-74
2022/06/27 09:44:44;;;;;;;0.00;0.00;;;36.40;30.30;;;;;;5101836;28;20466;-73
2022/06/27 09:47:26;;;;;;;0.30;0.30;;;36.50;29.30;;;;;;5102002;28;20114;-73
2022/06/27 09:49:59;;;;;;;0.10;0.10;;;37.00;29.40;;;;;;5099532;28;20032;-73
2022/06/27 09:52:26;;;;;;;0.00;0.00;;;37.40;29.10;;;;;;5105048;28;20039;-75
2022/06/27 09:54:55;;;;;;;0.00;0.00;;;37.00;28.30;;;;;;5102857;28;20028;-74
2022/06/27 09:57:24;;;;;;;0.03;0.03;;;36.50;28.90;;;;;;5101336;28;20058;-75
2022/06/27 09:59:51;;;;;;;0.00;0.00;;;36.60;28.90;;;;;;5097338;28;20514;-74
2022/06/27 10:02:19;;;;;;;0.10;0.10;;;36.70;28.80;;;;;;5098366;27;20157;-74
2022/06/27 10:04:51;;;;;;;0.17;0.13;;;36.80;28.90;;;;;;5101460;28;20024;-75
2022/06/27 10:07:19;;;;;;;0.00;0.00;;;36.60;29.00;;;;;;5100688;28;20400;-74
2022/06/27 10:09:48;;;;;;;0.40;0.35;;;36.50;29.10;;;;;;5087986;28;20131;-75
2022/06/27 10:12:22;;;;;;;0.47;0.15;;;36.70;29.50;;;;;;5084769;28;20110;-75
2022/06/27 10:15:10;;;;;;;0.50;0.50;;;36.40;29.30;;;;;;5085506;28;20034;-74
2022/06/27 10:17:38;;;;;;;0.73;0.32;;;36.20;29.10;;;;;;5089383;28;20028;-74
2022/06/27 10:20:10;;;;;;;0.00;0.00;;;36.20;29.00;;;;;;5084542;28;20016;-75
2022/06/27 10:22:36;;;;;;;0.20;0.10;;;36.10;29.40;;;;;;5085554;28;20047;-72
2022/06/27 10:25:27;;;;;;;31.67;0.75;;;36.10;30.10;;;;;;5087295;28;20028;-75
2022/06/27 10:28:21;;;;;;;0.00;0.00;;;36.10;29.70;;;;;;5085425;28;20490;-73
2022/06/27 10:30:58;;;;;;;0.00;0.00;;;36.10;29.30;;;;;;5080633;28;20077;-75
2022/06/27 10:33:28;;;;;;;0.10;0.10;;;36.20;29.40;;;;;;5085135;28;20451;-75
2022/06/27 10:35:55;;;;;;;0.43;0.43;;;36.40;30.20;;;;;;5088870;28;20064;-75
2022/06/27 10:38:22;;;;;;;0.00;0.00;;;36.50;29.90;;;;;;5083567;28;20115;-73
2022/06/27 10:53:22;;;;;;;0.20;0.20;;;36.70;28.80;;;;;;5080833;27;20420;-75
2022/06/27 10:55:49;;;;;;;0.10;0.10;;;36.00;29.30;;;;;;5079375;28;21044;-74
2022/06/27 10:58:23;;;;;;;0.00;0.00;;;36.20;29.60;;;;;;5074542;28;20040;-74
2022/06/27 11:00:50;;;;;;;0.00;0.00;;;36.30;28.90;;;;;;5073363;28;20036;-74
2022/06/27 11:03:25;;;;;;;0.03;0.03;;;36.20;29.20;;;;;;5080220;28;20035;-73
2022/06/27 11:05:52;;;;;;;0.20;0.20;;;36.10;28.60;;;;;;5060869;28;20077;-75
2022/06/27 11:08:20;;;;;;;0.00;0.00;;;35.80;29.10;;;;;;5080731;28;20041;-75
2022/06/27 11:10:47;;;;;;;0.00;0.00;;;35.70;29.80;;;;;;5078952;28;20029;-75
2022/06/27 11:13:42;;;;;;;0.00;0.00;;;35.80;29.90;;;;;;5079290;28;20103;-73
2022/06/27 11:16:20;;;;;;;0.00;0.00;;;35.70;30.10;;;;;;5079507;28;20143;-74
2022/06/27 11:21:57;;;;;;;0.45;0.45;;;35.80;29.40;;;;;;5078766;28;20078;-74
2022/06/27 11:24:23;;;;;;;0.00;0.00;;;35.70;29.30;;;;;;5081112;28;20028;-73
2022/06/27 11:26:50;;;;;;;0.10;0.10;;;35.60;29.80;;;;;;5081884;28;20031;-74
2022/06/27 11:32:05;;;;;;;0.08;0.08;;;35.60;29.70;;;;;;5083153;28;20103;-74
2022/06/27 11:34:34;;;;;;;0.00;0.00;;;35.80;29.20;;;;;;5079979;28;20020;-74
2022/06/27 11:37:09;;;;;;;0.43;0.43;;;35.80;29.00;;;;;;5081480;28;20027;-74
2022/06/27 11:39:36;;;;;;;0.00;0.00;;;35.80;28.80;;;;;;5079420;28;20210;-74
2022/06/27 11:42:09;;;;;;;0.00;0.00;;;35.70;28.90;;;;;;5085151;28;20386;-74
2022/06/27 11:44:36;;;;;;;0.00;0.00;;;35.60;30.40;;;;;;5084601;28;20037;-75
2022/06/27 11:47:09;;;;;;;0.00;0.00;;;35.80;29.70;;;;;;5082116;28;20028;-74
2022/06/27 11:49:39;;;;;;;0.00;0.00;;;36.00;29.40;;;;;;5083643;28;20044;-75
2022/06/27 11:52:09;;;;;;;0.20;0.20;;;36.00;29.20;;;;;;5081951;28;20072;-75
2022/06/27 11:54:39;;;;;;;0.40;0.40;;;35.80;29.70;;;;;;5067361;28;20020;-74
2022/06/27 11:57:27;;;;;;;0.00;0.00;;;35.80;29.00;;;;;;5072814;28;20032;-74
2022/06/27 11:59:55;;;;;;;0.00;0.00;;;35.70;29.00;;;;;;5070423;28;20025;-75
2022/06/27 12:02:28;;;;;;;0.30;0.30;;;35.60;28.60;;;;;;5069405;28;20032;-75
2022/06/27 12:05:06;;;;;;;0.00;0.00;;;35.60;29.30;;;;;;5067568;28;20020;-75
2022/06/27 12:07:47;;;;;;;0.00;0.00;;;35.50;29.60;;;;;;5073757;28;20500;-75
2022/06/27 12:10:14;;;;;;;0.00;0.00;;;35.60;29.40;;;;;;5068202;28;20489;-75
2022/06/27 12:12:45;;;;;;;0.38;0.38;;;35.60;29.80;;;;;;5069599;28;20119;-76
2022/06/27 12:15:21;;;;;;;0.80;0.80;;;35.60;30.40;;;;;;5066771;28;20043;-75
2022/06/27 12:17:54;;;;;;;0.00;0.00;;;35.90;29.40;;;;;;5069512;28;20062;-75
2022/06/27 12:20:20;;;;;;;0.00;0.00;;;36.00;29.10;;;;;;5068852;28;20398;-75
2022/06/27 12:22:48;;;;;;;0.22;0.20;;;36.00;28.70;;;;;;5064274;28;20032;-75
2022/06/27 12:25:14;;;;;;;0.52;0.52;;;36.00;28.90;;;;;;5067366;28;20031;-74
2022/06/27 12:27:41;;;;;;;0.00;0.00;;;35.70;29.80;;;;;;5071614;28;20025;-75
2022/06/27 12:30:07;;;;;;;0.00;0.00;;;35.40;30.30;;;;;;5072788;28;20052;-75
2022/06/27 12:32:35;;;;;;;0.00;0.00;;;35.10;30.20;;;;;;5071310;28;20075;-74
2022/06/27 12:35:02;;;;;;;0.00;0.00;;;35.20;31.60;;;;;;5072085;28;20493;-74
2022/06/27 12:37:28;;;;;;;0.10;0.10;;;35.30;30.70;;;;;;5071032;28;20103;-74
2022/06/27 12:39:54;;;;;;;0.20;0.20;;;35.20;30.90;;;;;;5070700;28;20120;-75
2022/06/27 12:42:20;;;;;;;0.00;0.00;;;35.00;30.90;;;;;;5073115;28;20055;-74
2022/06/27 12:44:46;;;;;;;0.10;0.10;;;35.00;31.40;;;;;;5070632;28;20024;-75
2022/06/27 12:47:12;;;;;;;0.00;0.00;;;34.90;30.90;;;;;;5069845;28;20051;-75
2022/06/27 12:49:38;;;;;;;0.00;0.00;;;34.80;31.80;;;;;;5070610;28;20017;-74
2022/06/27 12:52:04;;;;;;;0.00;0.00;;;35.00;32.20;;;;;;5071910;28;21435;-72
2022/06/27 12:54:31;;;;;;;0.00;0.00;;;34.90;32.40;;;;;;5074215;28;20024;-74
2022/06/27 12:56:57;;;;;;;0.00;0.00;;;34.80;32.00;;;;;;5070904;28;20031;-75
2022/06/27 12:59:23;;;;;;;0.00;0.00;;;34.90;32.30;;;;;;5072103;28;20478;-75
2022/06/27 13:01:50;;;;;;;0.00;0.00;;;34.90;32.60;;;;;;5065992;28;20458;-75
2022/06/27 13:04:16;;;;;;;0.00;0.00;;;34.90;32.40;;;;;;5068533;28;20289;-72
2022/06/27 13:06:43;;;;;;;0.00;0.00;;;34.90;32.30;;;;;;5070665;28;20056;-74
2022/06/27 13:09:09;;;;;;;0.00;0.00;;;34.90;32.10;;;;;;5070792;28;20033;-74
2022/06/27 13:11:35;;;;;;;0.00;0.00;;;34.80;32.40;;;;;;5072695;28;20035;-75
2022/06/27 13:14:01;;;;;;;0.00;0.00;;;34.90;32.90;;;;;;5072170;28;20379;-72
2022/06/27 13:16:27;;;;;;;0.00;0.00;;;34.80;33.20;;;;;;5072175;28;20024;-74
2022/06/27 13:18:53;;;;;;;0.00;0.00;;;34.90;33.90;;;;;;5068105;28;20024;-73
2022/06/27 13:21:19;;;;;;;0.00;0.00;;;34.80;35.10;;;;;;5068964;28;20032;-72
2022/06/27 13:23:45;;;;;;;0.00;0.00;;;34.50;34.70;;;;;;5066976;28;20058;-73